Chalk Butte, South Dakota
Current Conditions -  °F | °C
As of 10:58 AM on Thursday 18 Dec 2014 (Local Time) from KRCA Reporting Station
Clear Clear  
Wind Chill: 34°   Ceiling: Unl
Heat Index: 34°   Visibility: 10mi
Dew Point: 26°   Wind: 2mph
Humidity: 73%   Direction: 190°S
Pressure: 29.99"   Gusts: NA
Location:  44.653°N, 102.847°W
Report Text: KRCA 181758Z AUTO 19002KT 10SM CLR 01/M03 A2999 RMK AO2 SLP194 T00111033 10011 21070 50001 $
Loading
Personal Weather Stations






























Interactive Weather Map New forecast layout! Learn more

10-Day Weather Forecast

Advertisements
Track Severe Weather on mobile